Time;durP1;ratioP1;P1;durP2;ratioP2;P2;SDS_P1;SDS_P2;PMS_P1;PMS_P2;Temp;Humidity;BMP_temperature;BMP_pressure;BME280_temperature;BME280_humidity;BME280_pressure;Samples;Min_cycle;Max_cycle;Signal;HPM_P1;HPM_P2
2022/11/09 00:01:27;;;;;;;127.45;59.50;;;;;;;;;;5056594;28;20123;-92
2022/11/09 00:03:55;;;;;;;124.57;60.00;;;;;;;;;;5056453;28;20064;-92
2022/11/09 00:06:21;;;;;;;133.65;65.25;;;;;;;;;;5056344;28;20035;-92
2022/11/09 00:08:47;;;;;;;142.40;63.00;;;;;;;;;;5056978;28;20029;-92
2022/11/09 00:11:13;;;;;;;166.05;69.95;;;;;;;;;;5056103;28;20025;-94
2022/11/09 00:13:41;;;;;;;144.57;64.93;;;;;;;;;;5056340;28;20054;-92
2022/11/09 00:16:08;;;;;;;145.35;65.45;;;;;;;;;;5056587;28;20035;-93
2022/11/09 00:18:35;;;;;;;119.40;57.17;;;;;;;;;;5056131;28;20066;-92
2022/11/09 00:21:10;;;;;;;146.48;64.40;;;;;;;;;;5056374;28;20090;-92
2022/11/09 00:23:36;;;;;;;170.00;68.45;;;;;;;;;;5056338;28;20082;-92
2022/11/09 00:26:03;;;;;;;112.47;56.45;;;;;;;;;;5056720;28;20523;-91
2022/11/09 00:28:29;;;;;;;143.55;66.32;;;;;;;;;;5056453;28;20028;-90
2022/11/09 00:31:02;;;;;;;101.95;52.63;;;;;;;;;;5057114;28;20058;-92
2022/11/09 00:33:28;;;;;;;141.18;64.65;;;;;;;;;;5056590;28;20029;-92
2022/11/09 00:35:55;;;;;;;151.65;71.10;;;;;;;;;;5056527;28;20035;-92
2022/11/09 00:38:21;;;;;;;124.53;59.90;;;;;;;;;;5056284;28;20460;-91
2022/11/09 00:40:47;;;;;;;148.90;68.00;;;;;;;;;;5055979;28;20186;-91
2022/11/09 00:43:13;;;;;;;120.65;61.22;;;;;;;;;;5056238;28;20116;-91
2022/11/09 00:45:39;;;;;;;95.28;53.72;;;;;;;;;;5056226;28;20105;-92
2022/11/09 00:48:06;;;;;;;102.95;54.65;;;;;;;;;;5056389;28;20025;-92
2022/11/09 00:50:32;;;;;;;116.63;57.88;;;;;;;;;;5056165;28;20062;-92
2022/11/09 00:52:59;;;;;;;130.55;63.08;;;;;;;;;;5075150;28;20005;-91
2022/11/09 00:55:25;;;;;;;110.32;55.50;;;;;;;;;;5065094;28;20037;-92
2022/11/09 00:57:52;;;;;;;129.38;60.55;;;;;;;;;;5056451;28;20016;-93
2022/11/09 01:00:20;;;;;;;97.50;53.20;;;;;;;;;;5055884;28;20128;-93
2022/11/09 01:02:46;;;;;;;96.20;52.47;;;;;;;;;;5056039;28;20025;-92
2022/11/09 01:05:12;;;;;;;111.75;56.88;;;;;;;;;;5056259;28;20028;-91
2022/11/09 01:07:39;;;;;;;104.22;55.95;;;;;;;;;;5056283;28;20020;-91
2022/11/09 01:10:05;;;;;;;119.40;59.80;;;;;;;;;;5056023;28;20063;-90
2022/11/09 01:12:32;;;;;;;99.10;52.63;;;;;;;;;;5056096;28;20036;-91
2022/11/09 01:14:58;;;;;;;127.40;60.60;;;;;;;;;;5055980;28;20036;-90
2022/11/09 01:17:24;;;;;;;124.93;60.72;;;;;;;;;;5055741;28;20094;-91
2022/11/09 01:19:50;;;;;;;125.22;61.25;;;;;;;;;;5055950;28;20029;-91
2022/11/09 01:22:18;;;;;;;125.03;61.17;;;;;;;;;;5056434;28;20029;-91
2022/11/09 01:24:45;;;;;;;126.53;59.85;;;;;;;;;;5059914;28;20108;-90
2022/11/09 01:27:12;;;;;;;111.25;55.45;;;;;;;;;;5059731;28;20033;-91
2022/11/09 01:29:38;;;;;;;114.93;55.50;;;;;;;;;;5059709;28;20075;-91
2022/11/09 01:32:04;;;;;;;113.32;55.55;;;;;;;;;;5059440;28;20021;-92
2022/11/09 01:34:30;;;;;;;79.18;45.63;;;;;;;;;;5059610;28;20082;-92
2022/11/09 01:36:56;;;;;;;117.18;55.20;;;;;;;;;;5059837;28;20124;-92
2022/11/09 01:39:22;;;;;;;97.32;51.00;;;;;;;;;;5059136;28;20560;-91
2022/11/09 01:41:48;;;;;;;112.60;53.13;;;;;;;;;;5059113;28;20028;-92
2022/11/09 01:44:18;;;;;;;95.55;50.83;;;;;;;;;;5059278;28;20423;-91
2022/11/09 01:46:44;;;;;;;110.28;54.00;;;;;;;;;;5059153;28;20021;-92
2022/11/09 01:49:23;;;;;;;111.55;52.05;;;;;;;;;;5059329;28;20047;-91
2022/11/09 01:51:55;;;;;;;114.55;53.17;;;;;;;;;;5059040;28;20024;-92
2022/11/09 01:54:29;;;;;;;107.83;52.20;;;;;;;;;;5059322;28;20020;-92
2022/11/09 01:56:58;;;;;;;96.38;47.40;;;;;;;;;;5059086;28;20271;-91
2022/11/09 01:59:30;;;;;;;111.60;52.00;;;;;;;;;;5059032;28;20039;-91
2022/11/09 02:01:56;;;;;;;98.65;48.75;;;;;;;;;;5058823;28;20064;-92
2022/11/09 02:04:24;;;;;;;91.45;50.33;;;;;;;;;;5058667;28;20040;-92
2022/11/09 02:06:50;;;;;;;73.57;43.13;;;;;;;;;;5058605;28;20063;-91
2022/11/09 02:09:29;;;;;;;105.97;52.03;;;;;;;;;;5058397;28;20053;-92
2022/11/09 02:11:56;;;;;;;86.63;46.38;;;;;;;;;;5059066;28;20020;-92
2022/11/09 02:14:23;;;;;;;88.32;47.78;;;;;;;;;;5058832;28;20082;-91
2022/11/09 02:16:49;;;;;;;77.90;42.90;;;;;;;;;;5058654;28;20066;-93
2022/11/09 02:19:15;;;;;;;77.07;41.92;;;;;;;;;;5058403;28;20036;-92
2022/11/09 02:21:41;;;;;;;72.32;41.85;;;;;;;;;;5059233;28;20048;-91
2022/11/09 02:24:07;;;;;;;96.72;50.33;;;;;;;;;;5059627;28;20021;-92
2022/11/09 02:26:50;;;;;;;75.70;44.22;;;;;;;;;;5058504;28;20043;-92
2022/11/09 05:25:16;;;;;;;115.50;50.58;;;;;;;;;;5422946;22;20060;-96
2022/11/09 05:31:44;;;;;;;109.53;49.17;;;;;;;;;;4946397;28;20028;-94
2022/11/09 05:34:13;;;;;;;83.57;43.05;;;;;;;;;;4979580;28;20039;-91
2022/11/09 05:36:50;;;;;;;96.88;48.13;;;;;;;;;;5035720;28;20036;-94
2022/11/09 05:39:44;;;;;;;89.85;44.08;;;;;;;;;;5059708;28;20024;-94
2022/11/09 05:45:48;;;;;;;86.40;43.35;;;;;;;;;;5051500;28;20468;-96
2022/11/09 05:51:55;;;;;;;;;;;;;;;;;;;;;
2022/11/09 05:57:23;;;;;;;100.85;47.42;;;;;;;;;;4975698;28;20094;-96
2022/11/09 05:59:49;;;;;;;122.63;53.83;;;;;;;;;;5019436;28;20443;-95
2022/11/09 06:02:15;;;;;;;104.65;50.17;;;;;;;;;;5039354;28;20021;-94
2022/11/09 06:04:41;;;;;;;111.35;52.78;;;;;;;;;;5041289;28;20032;-95
2022/11/09 06:07:08;;;;;;;114.88;52.67;;;;;;;;;;5039120;28;20432;-95
2022/11/09 06:09:34;;;;;;;111.45;52.67;;;;;;;;;;5044949;28;20005;-94
2022/11/09 06:12:00;;;;;;;110.03;52.55;;;;;;;;;;5111185;23;20057;-95
2022/11/09 06:14:26;;;;;;;125.53;53.40;;;;;;;;;;5040887;28;20119;-95
2022/11/09 06:16:52;;;;;;;104.47;50.13;;;;;;;;;;5044906;28;20033;-93
2022/11/09 06:19:33;;;;;;;87.47;45.88;;;;;;;;;;5041332;28;20022;-96
2022/11/09 06:22:01;;;;;;;110.60;49.53;;;;;;;;;;5038657;28;20037;-96
2022/11/09 06:24:39;;;;;;;118.05;53.72;;;;;;;;;;5041724;28;20052;-96
2022/11/09 06:27:08;;;;;;;104.03;49.30;;;;;;;;;;5043414;28;20025;-95
2022/11/09 06:29:37;;;;;;;123.53;52.88;;;;;;;;;;5041747;28;20025;-95
2022/11/09 06:32:03;;;;;;;111.78;51.00;;;;;;;;;;5036849;28;20032;-94
2022/11/09 06:34:48;;;;;;;;;;;;;;;;;;;;;
2022/11/09 06:37:52;;;;;;;;;;;;;;;;;;;;;
2022/11/09 06:40:30;;;;;;;104.22;49.78;;;;;;;;;;5047556;28;20132;-96
2022/11/09 06:49:05;;;;;;;131.50;56.75;;;;;;;;;;4965053;29;20078;-95
2022/11/09 06:51:37;;;;;;;141.55;58.42;;;;;;;;;;5029820;28;20024;-96
2022/11/09 06:54:07;;;;;;;140.50;57.85;;;;;;;;;;5042577;28;20469;-96
2022/11/09 06:57:05;;;;;;;;;;;;;;;;;;;;;
2022/11/09 07:00:04;;;;;;;;;;;;;;;;;;;;;
2022/11/09 07:09:00;;;;;;;122.47;52.92;;;;;;;;;;5050779;28;20029;-95
2022/11/09 07:11:36;;;;;;;111.43;50.08;;;;;;;;;;5045838;28;20165;-96
2022/11/09 07:17:07;;;;;;;95.50;45.97;;;;;;;;;;4989850;28;20046;-94
2022/11/09 07:19:39;;;;;;;126.05;53.20;;;;;;;;;;4971454;28;20027;-96
2022/11/09 07:22:48;;;;;;;;;;;;;;;;;;;;;
2022/11/09 07:25:14;;;;;;;126.38;51.17;;;;;;;;;;5021466;28;20120;-94
2022/11/09 07:27:41;;;;;;;110.10;50.42;;;;;;;;;;5020174;28;20390;-94
2022/11/09 07:32:58;;;;;;;105.78;49.40;;;;;;;;;;5545982;22;20045;-93
2022/11/09 07:35:51;;;;;;;111.32;51.88;;;;;;;;;;5273821;22;20048;-95
2022/11/09 07:38:18;;;;;;;97.65;46.33;;;;;;;;;;5062532;28;20084;-93
2022/11/09 07:40:45;;;;;;;96.60;46.72;;;;;;;;;;5061698;28;20083;-94
2022/11/09 07:43:14;;;;;;;96.38;47.05;;;;;;;;;;5063559;28;20028;-91
2022/11/09 07:45:41;;;;;;;113.97;50.22;;;;;;;;;;5058314;28;20029;-95
2022/11/09 07:48:08;;;;;;;132.50;55.17;;;;;;;;;;5057904;28;20036;-94
2022/11/09 07:50:35;;;;;;;90.88;45.03;;;;;;;;;;5057730;28;20025;-93
2022/11/09 07:53:02;;;;;;;93.03;44.83;;;;;;;;;;5059051;28;20021;-94
2022/11/09 07:55:29;;;;;;;120.35;54.10;;;;;;;;;;5057613;28;20029;-94
2022/11/09 07:58:03;;;;;;;122.18;51.15;;;;;;;;;;5059470;28;20483;-96
2022/11/09 08:00:30;;;;;;;86.82;44.72;;;;;;;;;;5057797;28;20067;-94
2022/11/09 08:02:57;;;;;;;115.68;50.60;;;;;;;;;;5038670;28;20104;-95
2022/11/09 08:05:24;;;;;;;113.70;48.92;;;;;;;;;;5037180;28;20545;-93
2022/11/09 08:07:57;;;;;;;108.60;49.50;;;;;;;;;;5038160;28;20025;-94
2022/11/09 08:10:23;;;;;;;105.70;48.55;;;;;;;;;;5042077;28;20040;-96
2022/11/09 08:12:57;;;;;;;82.90;43.25;;;;;;;;;;5038375;28;20028;-94
2022/11/09 08:15:23;;;;;;;88.60;45.22;;;;;;;;;;5039246;28;20040;-96
2022/11/09 08:17:49;;;;;;;96.50;47.97;;;;;;;;;;5042889;28;20124;-95
2022/11/09 08:20:34;;;;;;;105.90;48.97;;;;;;;;;;5038075;28;20509;-96
2022/11/09 08:26:09;;;;;;;81.72;41.95;;;;;;;;;;5058469;28;20033;-93
2022/11/09 08:28:35;;;;;;;91.13;46.45;;;;;;;;;;5040161;28;20063;-94
2022/11/09 08:31:11;;;;;;;101.88;48.75;;;;;;;;;;5039727;28;20036;-96
2022/11/09 08:33:38;;;;;;;97.78;47.33;;;;;;;;;;5043309;28;20116;-93
2022/11/09 08:36:08;;;;;;;91.28;45.50;;;;;;;;;;5048403;28;20134;-92
2022/11/09 08:38:34;;;;;;;89.45;46.20;;;;;;;;;;5056507;28;20032;-94
2022/11/09 08:41:00;;;;;;;79.90;42.38;;;;;;;;;;5052687;28;20481;-93
2022/11/09 08:43:26;;;;;;;95.78;46.85;;;;;;;;;;5052954;28;20029;-95
2022/11/09 08:45:52;;;;;;;77.53;43.00;;;;;;;;;;5055293;28;20029;-94
2022/11/09 08:48:19;;;;;;;79.07;43.92;;;;;;;;;;5053151;28;20088;-94
2022/11/09 08:50:45;;;;;;;70.07;39.58;;;;;;;;;;5053654;28;20024;-95
2022/11/09 08:53:11;;;;;;;85.30;42.95;;;;;;;;;;5054830;28;20381;-95
2022/11/09 08:55:39;;;;;;;89.32;46.53;;;;;;;;;;5054177;28;20033;-96
2022/11/09 08:58:06;;;;;;;73.00;41.38;;;;;;;;;;5053128;28;20029;-95
2022/11/09 09:00:32;;;;;;;91.95;45.58;;;;;;;;;;5053243;28;20079;-96
2022/11/09 09:03:05;;;;;;;82.95;43.42;;;;;;;;;;5055952;28;20032;-96
2022/11/09 09:06:11;;;;;;;90.70;44.90;;;;;;;;;;5065931;28;20037;-96
2022/11/09 09:18:26;;;;;;;70.07;39.10;;;;;;;;;;4877523;29;20033;-96
2022/11/09 09:27:15;;;;;;;83.35;42.08;;;;;;;;;;4950015;28;20027;-95
2022/11/09 09:29:41;;;;;;;70.95;40.38;;;;;;;;;;5019928;28;20131;-93
2022/11/09 09:32:07;;;;;;;85.50;44.95;;;;;;;;;;5069662;28;20013;-92
2022/11/09 09:34:33;;;;;;;69.32;39.13;;;;;;;;;;5071714;28;20029;-95
2022/11/09 09:37:03;;;;;;;71.70;40.33;;;;;;;;;;5059187;28;20106;-92
2022/11/09 09:39:29;;;;;;;82.20;44.83;;;;;;;;;;5041807;28;20385;-93
2022/11/09 09:41:55;;;;;;;75.72;41.80;;;;;;;;;;5054675;28;20040;-93
2022/11/09 09:44:25;;;;;;;75.43;43.25;;;;;;;;;;5059343;28;20106;-94
2022/11/09 09:47:03;;;;;;;66.38;39.08;;;;;;;;;;5069805;28;20032;-96
2022/11/09 09:58:12;;;;;;;62.55;38.20;;;;;;;;;;5216011;22;20028;-94
2022/11/09 10:00:39;;;;;;;77.22;41.78;;;;;;;;;;5154034;22;20051;-95
2022/11/09 10:03:05;;;;;;;75.18;43.13;;;;;;;;;;5047809;28;20029;-95
2022/11/09 10:11:29;;;;;;;70.22;40.22;;;;;;;;;;5061611;28;20039;-96
2022/11/09 10:20:20;;;;;;;71.32;40.92;;;;;;;;;;5065964;28;20035;-96
2022/11/09 10:37:09;;;;;;;72.80;41.95;;;;;;;;;;5405901;22;20095;-91
2022/11/09 10:39:40;;;;;;;65.60;40.30;;;;;;;;;;5049601;28;20049;-93
2022/11/09 10:45:18;;;;;;;72.28;41.22;;;;;;;;;;5311785;22;20063;-91
2022/11/09 10:47:48;;;;;;;53.78;35.83;;;;;;;;;;5052353;28;20036;-91
2022/11/09 10:50:33;;;;;;;59.85;39.28;;;;;;;;;;5190545;23;20040;-93
2022/11/09 10:53:18;;;;;;;59.00;37.78;;;;;;;;;;5051751;28;20560;-93
2022/11/09 10:56:09;;;;;;;66.85;40.65;;;;;;;;;;5045492;28;20031;-94
2022/11/09 11:07:30;;;;;;;52.93;34.73;;;;;;;;;;5199971;22;20305;-96
2022/11/09 11:09:57;;;;;;;62.30;39.63;;;;;;;;;;5559033;22;20803;-94
2022/11/09 11:12:23;;;;;;;61.75;39.17;;;;;;;;;;5066280;28;20029;-93
2022/11/09 11:20:19;;;;;;;70.05;44.33;;;;;;;;;;5449475;22;20090;-93
2022/11/09 11:23:27;;;;;;;68.90;42.97;;;;;;;;;;5045525;28;20025;-96
2022/11/09 11:25:55;;;;;;;68.63;43.75;;;;;;;;;;5266809;22;20447;-94
2022/11/09 11:28:26;;;;;;;60.88;41.80;;;;;;;;;;5038431;28;20017;-94
2022/11/09 11:30:52;;;;;;;66.38;42.85;;;;;;;;;;5040446;28;20113;-95
2022/11/09 11:33:52;;;;;;;64.25;40.85;;;;;;;;;;5041719;28;20025;-96
2022/11/09 11:36:26;;;;;;;67.90;41.83;;;;;;;;;;5037328;28;20068;-94
2022/11/09 11:39:27;;;;;;;;;;;;;;;;;;;;;
2022/11/09 11:42:02;;;;;;;61.05;41.03;;;;;;;;;;5055643;28;20040;-93
2022/11/09 11:49:55;;;;;;;66.68;42.67;;;;;;;;;;5335032;22;20067;-96
2022/11/09 11:53:00;;;;;;;63.22;43.40;;;;;;;;;;5236961;23;20072;-96
2022/11/09 11:58:30;;;;;;;73.75;46.75;;;;;;;;;;5953113;22;20098;-94
2022/11/09 12:06:54;;;;;;;60.50;43.03;;;;;;;;;;5117107;22;20120;-96
2022/11/09 12:12:42;;;;;;;62.25;41.03;;;;;;;;;;5062027;28;20087;-96
2022/11/09 12:15:24;;;;;;;66.90;45.25;;;;;;;;;;5071104;23;20049;-92
2022/11/09 12:26:22;;;;;;;52.80;36.33;;;;;;;;;;5131994;22;20052;-94
2022/11/09 12:28:48;;;;;;;52.25;36.30;;;;;;;;;;5060103;28;20024;-94
2022/11/09 12:31:43;;;;;;;54.08;37.13;;;;;;;;;;5058866;28;20043;-96
2022/11/09 12:34:09;;;;;;;;;;;;;;;;;;5057103;28;20112;-96
2022/11/09 12:36:35;;;;;;;48.83;32.33;;;;;;;;;;5059682;28;19913;-94
2022/11/09 12:39:19;;;;;;;51.50;33.85;;;;;;;;;;5057946;28;20431;-93
2022/11/09 12:45:10;;;;;;;57.92;36.13;;;;;;;;;;5079701;28;20096;-96
2022/11/09 12:47:39;;;;;;;52.88;35.88;;;;;;;;;;5400047;22;20351;-93
2022/11/09 12:50:22;;;;;;;50.20;34.83;;;;;;;;;;5045689;28;20025;-96
2022/11/09 12:52:51;;;;;;;49.53;33.78;;;;;;;;;;5086933;23;20057;-96
2022/11/09 12:58:02;;;;;;;47.17;32.83;;;;;;;;;;5271223;22;20078;31
2022/11/09 13:03:06;;;;;;;49.13;34.50;;;;;;;;;;5224719;22;20035;-93
2022/11/09 13:48:47;;;;;;;44.42;31.48;;;;;;;;;;5090252;28;20064;-94
2022/11/09 13:56:44;;;;;;;47.97;33.45;;;;;;;;;;5897398;22;20035;-93
2022/11/09 14:02:04;;;;;;;49.90;34.50;;;;;;;;;;5235966;22;20135;-93
2022/11/09 14:29:11;;;;;;;50.33;34.25;;;;;;;;;;3302360;22;20320;-92
2022/11/09 14:34:17;;;;;;;45.40;32.17;;;;;;;;;;5011533;28;20038;-94
2022/11/09 14:37:36;;;;;;;;;;;;;;;;;;;;;
2022/11/09 14:39:39;;;;;;;44.72;30.45;;;;;;;;;;4996556;28;20113;-94
2022/11/09 14:42:06;;;;;;;51.08;34.65;;;;;;;;;;4979171;28;20109;-94
2022/11/09 14:45:05;;;;;;;43.38;31.58;;;;;;;;;;5021230;28;20037;-96
2022/11/09 14:47:37;;;;;;;46.90;29.42;;;;;;;;;;5112762;23;20060;-95
2022/11/09 14:50:06;;;;;;;43.85;30.35;;;;;;;;;;5054632;28;20021;-91
2022/11/09 15:10:15;;;;;;;41.10;28.90;;;;;;;;;;5448620;22;21378;-94
2022/11/09 15:12:49;;;;;;;49.97;33.13;;;;;;;;;;5183071;23;20120;-94
2022/11/09 15:15:18;;;;;;;49.03;32.55;;;;;;;;;;5179393;23;20136;-93
2022/11/09 15:41:10;;;;;;;46.20;34.65;;;;;;;;;;6088660;22;20091;-94
2022/11/09 16:04:25;;;;;;;69.97;41.22;;;;;;;;;;5173125;22;20405;-93
2022/11/09 16:12:02;;;;;;;57.28;37.83;;;;;;;;;;5584282;22;20029;-94
2022/11/09 16:19:59;;;;;;;55.28;38.65;;;;;;;;;;5714906;22;20119;-95
2022/11/09 16:22:48;;;;;;;53.05;37.97;;;;;;;;;;5046939;28;20045;-92
2022/11/09 16:25:14;;;;;;;52.13;36.17;;;;;;;;;;5045189;28;20543;-91
2022/11/09 16:27:47;;;;;;;60.08;37.10;;;;;;;;;;5042302;28;20029;-92
2022/11/09 16:30:14;;;;;;;68.60;43.13;;;;;;;;;;5039154;28;20025;-93
2022/11/09 16:32:59;;;;;;;55.17;37.85;;;;;;;;;;5160927;23;20493;-96
2022/11/09 16:35:31;;;;;;;61.80;38.95;;;;;;;;;;5060011;28;20056;-90
2022/11/09 16:40:34;;;;;;;61.03;39.70;;;;;;;;;;4982832;22;1974045;-91
2022/11/09 16:43:20;;;;;;;58.75;38.17;;;;;;;;;;5058443;28;20108;-94
2022/11/09 16:45:48;;;;;;;61.83;37.72;;;;;;;;;;5023942;28;20032;-90
2022/11/09 16:48:32;;;;;;;62.45;39.15;;;;;;;;;;5023392;28;20057;-95
2022/11/09 16:54:05;;;;;;;57.30;35.28;;;;;;;;;;5307467;23;20106;-96
2022/11/09 16:56:35;;;;;;;66.20;38.10;;;;;;;;;;5065665;28;20124;-94
2022/11/09 17:05:08;;;;;;;48.88;32.85;;;;;;;;;;5092442;28;20035;-92
2022/11/09 17:07:36;;;;;;;55.38;34.25;;;;;;;;;;5075187;28;20028;-93
2022/11/09 17:10:24;;;;;;;64.13;37.15;;;;;;;;;;5074890;28;20033;-95
2022/11/09 17:16:11;;;;;;;45.63;31.10;;;;;;;;;;5122707;22;20043;-93
2022/11/09 17:21:52;;;;;;;65.30;39.17;;;;;;;;;;5013529;28;20415;-96
2022/11/09 17:24:32;;;;;;;73.53;42.58;;;;;;;;;;5008362;28;20061;-96
2022/11/09 17:27:18;;;;;;;73.45;42.45;;;;;;;;;;5028362;28;20021;-94
2022/11/09 17:32:39;;;;;;;59.83;38.50;;;;;;;;;;5071810;23;20041;-91
2022/11/09 17:35:08;;;;;;;71.03;41.63;;;;;;;;;;5056585;28;20024;-96
2022/11/09 17:37:37;;;;;;;59.92;39.08;;;;;;;;;;5039784;28;20033;-94
2022/11/09 17:40:07;;;;;;;65.47;41.08;;;;;;;;;;5046662;28;20039;-96
2022/11/09 17:45:40;;;;;;;67.03;39.75;;;;;;;;;;5077079;28;20058;-93
2022/11/09 17:48:14;;;;;;;66.20;40.10;;;;;;;;;;5054129;28;20021;-93
2022/11/09 17:57:07;;;;;;;65.15;40.25;;;;;;;;;;5511627;22;20135;-94
2022/11/09 18:02:09;;;;;;;75.15;44.22;;;;;;;;;;5104257;22;20049;-94
2022/11/09 18:18:39;;;;;;;88.78;46.33;;;;;;;;;;5316264;22;20044;-94
2022/11/09 18:23:39;;;;;;;78.13;43.42;;;;;;;;;;5206170;22;20378;-94
2022/11/09 18:26:06;;;;;;;77.15;44.50;;;;;;;;;;5368910;22;20024;-90
2022/11/09 18:41:59;;;;;;;95.00;48.83;;;;;;;;;;5722187;22;20349;-94
2022/11/09 18:47:01;;;;;;;92.00;45.97;;;;;;;;;;5869277;22;20036;-95
2022/11/09 18:49:42;;;;;;;76.43;41.92;;;;;;;;;;5451388;23;20065;-96
2022/11/09 18:52:15;;;;;;;97.25;47.65;;;;;;;;;;5137295;22;20049;-95
2022/11/09 18:57:48;;;;;;;;;;;;;;;;;;5952962;22;20063;-96
2022/11/09 19:00:50;;;;;;;82.40;42.75;;;;;;;;;;5070579;28;19941;-95
2022/11/09 19:03:33;;;;;;;109.30;52.03;;;;;;;;;;5076429;28;20048;-96
2022/11/09 20:06:55;;;;;;;101.88;48.80;;;;;;;;;;4967020;29;20071;-96
2022/11/09 20:09:52;;;;;;;86.07;46.08;;;;;;;;;;4961274;28;20038;-96
2022/11/09 20:15:36;;;;;;;;;;;;;;;;;;;;;
2022/11/09 20:33:25;;;;;;;;;;;;;;;;;;;;;
2022/11/09 20:35:52;;;;;;;80.85;44.78;;;;;;;;;;5037447;28;20085;-94
2022/11/09 20:39:02;;;;;;;122.63;53.05;;;;;;;;;;5020016;28;20029;-95
2022/11/09 20:41:36;;;;;;;98.13;46.55;;;;;;;;;;4974765;28;20045;-96
2022/11/09 20:44:32;;;;;;;85.18;45.58;;;;;;;;;;5019489;28;20036;-96
2022/11/09 20:50:21;;;;;;;120.20;56.08;;;;;;;;;;5520783;23;20064;-96
2022/11/09 20:56:44;;;;;;;;;;;;;;;;;;;;;
2022/11/09 21:06:28;;;;;;;;;;;;;;;;;;;;;
2022/11/09 22:06:28;;;;;;;;;;;;;;;;;;;;;
2022/11/09 22:21:21;;;;;;;87.90;44.88;;;;;;;;;;5005990;28;20514;-96
2022/11/09 22:24:19;;;;;;;;;;;;;;;;;;;;;
2022/11/09 22:26:55;;;;;;;107.13;50.75;;;;;;;;;;5045364;28;20531;-96
2022/11/09 22:29:26;;;;;;;90.70;46.58;;;;;;;;;;5050506;28;20124;-96
2022/11/09 22:37:52;;;;;;;75.10;42.38;;;;;;;;;;5086816;23;20507;-96
2022/11/09 22:40:38;;;;;;;65.47;37.78;;;;;;;;;;5070402;28;20044;-96
2022/11/09 22:43:14;;;;;;;67.95;40.53;;;;;;;;;;5070400;28;20028;-96
2022/11/09 22:48:50;;;;;;;64.63;36.58;;;;;;;;;;5041864;28;20048;-96
2022/11/09 22:51:47;;;;;;;60.03;36.55;;;;;;;;;;5023559;28;20042;-96
2022/11/09 22:57:27;;;;;;;64.15;38.95;;;;;;;;;;5067417;28;20445;-96
2022/11/09 23:02:32;;;;;;;65.50;40.15;;;;;;;;;;5380658;22;20176;-96
2022/11/09 23:05:06;;;;;;;63.20;40.05;;;;;;;;;;5129472;22;20042;-96
2022/11/09 23:42:17;;;;;;;66.68;40.70;;;;;;;;;;4766480;22;20028;-96
2022/11/09 23:47:54;;;;;;;64.93;40.03;;;;;;;;;;5248312;22;20079;-96
2022/11/09 23:55:46;;;;;;;65.07;39.63;;;;;;;;;;5289034;22;20060;-96
2022/11/09 23:58:17;;;;;;;65.75;40.65;;;;;;;;;;5057895;28;20059;-96
